Time;durP1;ratioP1;P1;durP2;ratioP2;P2;SDS_P1;SDS_P2;PMS_P1;PMS_P2;Temp;Humidity;BMP_temperature;BMP_pressure;BME280_temperature;BME280_humidity;BME280_pressure;Samples;Min_cycle;Max_cycle;Signal;HPM_P1;HPM_P2
2022/06/21 00:02:12;;;;;;;5.70;4.80;;;;;;;14.02;70.29;99846.84;110522;1250;21956;-76
2022/06/21 00:04:53;;;;;;;6.30;4.70;;;;;;;13.98;70.31;99848.96;110674;1250;21956;-76
2022/06/21 00:07:33;;;;;;;;;;;;;;;13.96;70.29;99846.10;110697;1251;23751;-75
2022/06/21 00:10:10;;;;;;;9.30;4.20;;;;;;;13.85;70.36;99844.29;110936;1250;21963;-76
2022/06/21 00:12:47;;;;;;;6.60;4.20;;;;;;;13.83;70.56;99846.60;110759;1250;21956;-76
2022/06/21 00:15:26;;;;;;;6.10;4.10;;;;;;;13.85;70.46;99845.71;110786;1252;21971;-76
2022/06/21 00:18:01;;;;;;;6.80;4.00;;;;;;;13.85;70.48;99853.07;110498;1251;23819;-76
2022/06/21 00:20:35;;;;;;;4.50;4.00;;;;;;;13.86;70.50;99847.52;110687;1251;23745;-76
2022/06/21 00:23:17;;;;;;;5.80;3.40;;;;;;;13.87;70.26;99847.07;110581;1251;21957;-74
2022/06/21 00:25:47;;;;;;;5.90;3.30;;;;;;;13.85;70.03;99844.86;110583;1251;21956;-76
2022/06/21 00:28:23;;;;;;;6.10;3.30;;;;;;;13.84;69.90;99842.82;110738;1251;23031;-76
2022/06/21 00:31:00;;;;;;;4.90;2.80;;;;;;;13.85;69.83;99849.89;110562;1251;23767;-76
2022/06/21 00:33:33;;;;;;;3.20;2.80;;;;;;;13.86;69.70;99844.45;109993;1257;22912;-76
2022/06/21 00:36:31;;;;;;;8.60;4.20;;;;;;;13.85;69.38;99845.02;109240;1263;23084;-76
2022/06/21 00:39:04;;;;;;;3.90;2.80;;;;;;;13.78;69.05;99849.17;109246;1264;21978;-75
2022/06/21 00:42:13;;;;;;;3.40;2.60;;;;;;;13.72;68.85;99854.22;109635;1263;23794;-75
2022/06/21 00:45:08;;;;;;;4.50;3.30;;;;;;;13.67;68.72;99849.39;109284;1266;21983;-76
2022/06/21 00:47:52;;;;;;;3.40;3.10;;;;;;;13.62;68.57;99837.17;109648;1263;21983;-76
2022/06/21 00:50:31;;;;;;;6.70;2.90;;;;;;;13.60;68.45;99842.39;109555;1263;22805;-76
2022/06/21 00:53:20;;;;;;;3.20;2.70;;;;;;;13.58;68.31;99852.42;109705;1263;23918;-75
2022/06/21 00:56:51;;;;;;;4.00;2.80;;;;;;;13.53;68.34;99854.33;109617;1263;22680;-74
2022/06/21 00:59:32;;;;;;;3.10;2.50;;;;;;;13.45;68.23;99853.07;109015;1270;21999;-75
2022/06/21 01:02:33;;;;;;;3.00;2.70;;;;;;;13.41;68.14;99860.49;108640;1270;23050;-76
2022/06/21 01:05:06;;;;;;;3.90;2.60;;;;;;;13.38;68.10;99866.23;108696;1270;23730;-76
2022/06/21 01:07:36;;;;;;;5.20;2.60;;;;;;;13.32;67.81;99868.54;108775;1271;23692;-76
2022/06/21 01:10:17;;;;;;;5.60;2.40;;;;;;;13.27;67.80;99870.46;108874;1270;21994;-74
2022/06/21 01:12:57;;;;;;;4.00;2.30;;;;;;;13.22;67.72;99871.96;108736;1270;22003;-76
2022/06/21 01:15:41;;;;;;;3.00;2.40;;;;;;;13.15;67.77;99874.73;108693;1271;21985;-76
2022/06/21 01:18:24;;;;;;;6.50;2.30;;;;;;;13.08;67.63;99875.11;108794;1270;22034;-75
2022/06/21 01:21:00;;;;;;;3.80;2.30;;;;;;;13.01;67.73;99874.98;109033;1267;22981;-75
2022/06/21 01:23:38;;;;;;;;;;;;;;;12.95;67.66;99876.14;109304;1267;21981;-75
2022/06/21 01:26:49;;;;;;;6.30;2.10;;;;;;;12.81;67.81;99871.88;109487;1266;23706;-76
2022/06/21 01:29:30;;;;;;;3.20;1.80;;;;;;;12.75;67.99;99869.03;109483;1264;22955;-75
2022/06/21 01:32:06;;;;;;;4.70;1.90;;;;;;;12.75;68.02;99864.52;109114;1266;22461;-76
2022/06/21 01:34:39;;;;;;;4.70;2.00;;;;;;;12.76;67.93;99864.06;108775;1272;23070;-76
2022/06/21 01:37:18;;;;;;;2.60;2.20;;;;;;;12.75;67.83;99861.52;109030;1263;21989;-75
2022/06/21 01:40:21;;;;;;;3.20;2.00;;;;;;;12.72;67.71;99860.73;109934;1259;21978;-76
2022/06/21 01:42:57;;;;;;;7.20;2.30;;;;;;;12.69;67.79;99859.37;109207;1267;21983;-77
2022/06/21 01:45:39;;;;;;;3.60;1.70;;;;;;;12.69;67.92;99862.31;109207;1267;23700;-77
2022/06/21 01:48:33;;;;;;;5.10;1.90;;;;;;;12.71;67.81;99858.73;109209;1267;23068;-75
2022/06/21 01:51:17;;;;;;;8.20;2.00;;;;;;;12.70;67.65;99853.92;109110;1267;23615;-76
2022/06/21 01:53:48;;;;;;;4.50;1.70;;;;;;;12.67;67.67;99847.21;109426;1261;21971;-76
2022/06/21 01:56:36;;;;;;;3.40;1.90;;;;;;;12.65;67.66;99847.20;109699;1261;23125;-77
2022/06/21 01:59:17;;;;;;;8.00;2.90;;;;;;;12.60;67.71;99844.80;109354;1260;21976;-77
2022/06/21 02:02:22;;;;;;;5.70;2.10;;;;;;;12.57;67.78;99849.91;110003;1251;23796;-76
2022/06/21 02:05:13;;;;;;;6.40;2.00;;;;;;;12.52;67.83;99848.48;110636;1253;21980;-76
2022/06/21 02:07:56;;;;;;;6.60;2.20;;;;;;;12.48;67.88;99849.80;110611;1251;22294;-75
2022/06/21 02:10:55;;;;;;;6.00;2.50;;;;;;;12.46;67.91;99853.41;110565;1251;22062;-75
2022/06/21 02:13:44;;;;;;;4.00;2.00;;;;;;;12.42;67.99;99856.90;110231;1258;22010;-75
2022/06/21 02:16:21;;;;;;;8.10;2.40;;;;;;;12.41;68.20;99857.98;109951;1258;23030;-77
2022/06/21 02:18:59;;;;;;;4.20;2.20;;;;;;;12.41;68.26;99859.93;109739;1257;22134;-76
2022/06/21 02:21:40;;;;;;;5.00;2.20;;;;;;;12.41;68.30;99857.33;109974;1257;22170;-76
2022/06/21 02:24:15;;;;;;;6.60;2.30;;;;;;;12.38;68.37;99853.77;110135;1257;21978;-77
2022/06/21 02:26:49;;;;;;;8.20;2.60;;;;;;;12.37;68.77;99857.95;109926;1260;21983;-76
2022/06/21 02:29:19;;;;;;;5.30;2.20;;;;;;;12.37;68.71;99854.81;110259;1259;23587;-77
2022/06/21 02:31:56;;;;;;;8.40;3.00;;;;;;;12.36;68.85;99853.13;109886;1258;23046;-77
2022/06/21 02:34:36;;;;;;;8.60;2.80;;;;;;;12.36;68.85;99853.66;110008;1256;22740;-77
2022/06/21 02:37:09;;;;;;;5.30;3.10;;;;;;;12.36;69.06;99852.60;110217;1257;22517;-75
2022/06/21 02:39:39;;;;;;;4.30;2.10;;;;;;;12.35;69.30;99851.17;110221;1257;21992;-75
2022/06/21 02:42:26;;;;;;;3.60;2.40;;;;;;;12.34;69.37;99848.83;110468;1257;21960;-75
2022/06/21 02:45:35;;;;;;;3.50;2.40;;;;;;;12.34;69.35;99844.95;110303;1257;23579;-76
2022/06/21 02:48:15;;;;;;;6.00;2.60;;;;;;;12.32;69.48;99855.55;109479;1264;23702;-76
2022/06/21 02:51:07;;;;;;;4.90;2.20;;;;;;;12.33;69.59;99861.30;109504;1260;23595;-75
2022/06/21 02:54:15;;;;;;;3.10;2.40;;;;;;;12.34;69.56;99865.50;110163;1257;23749;-76
2022/06/21 02:57:22;;;;;;;6.20;2.50;;;;;;;12.33;69.56;99860.33;109935;1257;21978;-76
2022/06/21 03:00:04;;;;;;;5.70;2.20;;;;;;;12.31;69.51;99864.41;109531;1264;21979;-76
2022/06/21 03:02:34;;;;;;;5.70;2.40;;;;;;;12.30;69.63;99861.67;108919;1267;21984;-76
2022/06/21 03:05:14;;;;;;;6.50;2.50;;;;;;;12.29;69.70;99865.26;109103;1268;23526;-76
2022/06/21 03:08:04;;;;;;;3.80;2.40;;;;;;;12.32;69.87;99866.75;108695;1270;22800;-76
2022/06/21 03:10:49;;;;;;;7.50;2.70;;;;;;;12.31;69.81;99862.91;108689;1270;21994;-76
2022/06/21 03:13:32;;;;;;;6.50;3.30;;;;;;;12.31;69.76;99862.45;108685;1270;22002;-75
2022/06/21 03:16:29;;;;;;;4.60;2.80;;;;;;;12.33;70.00;99862.44;108359;1278;22093;-75
2022/06/21 03:19:05;;;;;;;6.50;2.80;;;;;;;12.36;69.97;99866.34;107978;1283;23077;-75
2022/06/21 03:21:53;;;;;;;6.10;2.80;;;;;;;12.37;69.94;99874.33;107698;1285;22241;-76
2022/06/21 03:24:26;;;;;;;5.90;2.80;;;;;;;12.38;69.99;99876.17;107944;1280;23100;-76
2022/06/21 03:27:16;;;;;;;4.20;2.60;;;;;;;12.41;70.00;99877.79;108073;1279;23628;-76
2022/06/21 03:29:50;;;;;;;5.00;2.70;;;;;;;12.42;69.93;99880.25;108059;1279;23654;-76
2022/06/21 03:44:34;;;;;;;5.10;2.70;;;;;;;13.86;65.59;99885.73;106978;1290;548109;-80
2022/06/21 03:47:15;;;;;;;4.50;2.50;;;;;;;14.23;63.79;99887.80;110218;1252;212898;-79
2022/06/21 03:49:57;;;;;;;9.00;2.60;;;;;;;13.87;64.47;99888.98;110477;1253;22032;-79
2022/06/21 03:53:03;;;;;;;5.20;2.40;;;;;;;13.64;65.11;99886.17;110526;1252;23707;-78
2022/06/21 03:55:50;;;;;;;8.70;2.60;;;;;;;13.47;65.95;99890.45;110674;1251;24294;-78
2022/06/21 03:59:23;;;;;;;3.70;2.70;;;;;;;13.41;66.51;99893.30;110714;1251;21968;-78
2022/06/21 04:02:13;;;;;;;3.70;2.70;;;;;;;13.38;67.04;99892.19;110172;1257;21978;-79
2022/06/21 04:04:53;;;;;;;4.40;2.50;;;;;;;13.38;67.09;99895.05;110056;1257;22028;-80
2022/06/21 04:07:36;;;;;;;5.80;3.10;;;;;;;13.38;67.04;99891.78;109872;1260;23064;-81
2022/06/21 04:10:22;;;;;;;5.60;4.80;;;;;;;13.36;67.10;99894.66;110111;1260;21949;-79
2022/06/21 04:12:57;;;;;;;4.90;2.60;;;;;;;13.34;67.18;99899.92;109999;1257;23072;-80
2022/06/21 04:15:41;;;;;;;6.60;3.00;;;;;;;13.32;67.27;99903.34;110175;1257;21968;-79
2022/06/21 04:18:25;;;;;;;4.80;2.90;;;;;;;13.30;67.19;99910.15;110133;1257;21968;-80
2022/06/21 04:21:37;;;;;;;4.60;2.80;;;;;;;13.26;67.35;99908.52;110133;1257;21962;-80
2022/06/21 04:24:29;;;;;;;5.20;3.00;;;;;;;13.21;67.55;99907.55;110218;1256;23670;-80
2022/06/21 04:27:26;;;;;;;7.20;2.70;;;;;;;13.17;67.65;99907.59;110180;1257;21975;-80
2022/06/21 04:30:08;;;;;;;3.90;2.80;;;;;;;13.13;67.72;99908.85;109976;1258;23039;-80
2022/06/21 04:32:58;;;;;;;3.70;2.40;;;;;;;13.11;67.85;99905.90;109912;1258;22019;-79
2022/06/21 04:35:39;;;;;;;4.20;3.30;;;;;;;13.10;68.01;99911.75;109919;1258;21970;-80
2022/06/21 04:38:43;;;;;;;4.10;2.90;;;;;;;13.12;68.21;99917.04;110067;1252;21959;-80
2022/06/21 04:41:26;;;;;;;5.70;3.40;;;;;;;13.10;68.05;99918.70;110602;1252;22995;-79
2022/06/21 04:44:22;;;;;;;8.00;5.60;;;;;;;13.07;67.96;99917.34;110641;1251;21965;-79
2022/06/21 04:46:59;;;;;;;9.50;8.10;;;;;;;13.05;68.19;99914.75;110417;1252;21965;-80
2022/06/21 04:49:37;;;;;;;8.30;6.30;;;;;;;13.09;68.37;99914.56;110588;1252;21975;-79
2022/06/21 04:52:16;;;;;;;6.50;5.90;;;;;;;13.12;68.30;99919.61;110668;1252;23043;-80
2022/06/21 04:54:45;;;;;;;6.50;4.80;;;;;;;13.12;68.23;99916.84;110398;1252;21971;-79
2022/06/21 04:57:21;;;;;;;12.20;10.70;;;;;;;13.13;68.01;99921.68;110714;1252;22755;-78
2022/06/21 05:00:05;;;;;;;11.30;9.50;;;;;;;13.11;67.88;99922.98;110617;1251;24269;-81
2022/06/21 05:02:41;;;;;;;6.80;5.30;;;;;;;13.12;67.99;99923.73;110709;1251;24486;-79
2022/06/21 05:05:29;;;;;;;9.50;5.90;;;;;;;13.15;67.99;99923.01;110733;1251;23068;-79
2022/06/21 05:08:16;;;;;;;10.00;4.40;;;;;;;13.19;67.89;99924.14;110707;1251;21955;-79
2022/06/21 05:10:50;;;;;;;7.40;5.30;;;;;;;13.22;67.62;99931.41;110664;1251;21960;-79
2022/06/21 05:13:32;;;;;;;8.10;5.10;;;;;;;13.21;67.28;99936.10;110682;1251;22431;-79
2022/06/21 05:16:24;;;;;;;7.70;6.70;;;;;;;13.21;67.30;99937.00;110570;1253;21956;-79
2022/06/21 05:19:39;;;;;;;7.50;5.20;;;;;;;13.20;67.42;99935.81;110614;1252;22726;-79
2022/06/21 05:22:35;;;;;;;16.20;12.70;;;;;;;13.21;67.57;99933.54;110109;1257;23674;-81
2022/06/21 05:25:20;;;;;;;13.50;11.60;;;;;;;13.26;67.64;99930.13;110194;1258;23552;-79
2022/06/21 05:28:36;;;;;;;11.20;9.60;;;;;;;13.33;67.58;99927.67;110220;1257;23005;-79
2022/06/21 05:31:20;;;;;;;5.70;5.10;;;;;;;13.38;67.62;99929.34;110160;1258;22432;-79
2022/06/21 05:34:01;;;;;;;10.10;6.90;;;;;;;13.42;67.44;99933.61;110152;1258;23710;-79
2022/06/21 05:36:42;;;;;;;16.00;11.20;;;;;;;13.45;67.18;99931.48;110021;1259;23784;-79
2022/06/21 05:39:23;;;;;;;12.40;7.80;;;;;;;13.48;67.11;99925.36;110134;1258;24300;-80
2022/06/21 05:41:56;;;;;;;7.80;5.40;;;;;;;13.52;66.83;99925.02;110055;1258;23593;-80
2022/06/21 05:44:56;;;;;;;7.70;4.70;;;;;;;13.57;66.61;99934.81;110162;1257;23072;-80
2022/06/21 05:47:43;;;;;;;11.00;9.40;;;;;;;13.57;66.32;99939.22;110170;1258;21959;-80
2022/06/21 05:50:22;;;;;;;5.90;4.30;;;;;;;13.56;66.47;99943.76;110143;1258;21982;-80
2022/06/21 05:52:56;;;;;;;9.40;7.60;;;;;;;13.63;66.55;99941.86;110110;1259;21966;-79
2022/06/21 05:55:36;;;;;;;13.80;10.00;;;;;;;13.68;66.57;99940.54;110118;1258;24450;-75
2022/06/21 05:58:19;;;;;;;9.90;7.20;;;;;;;13.76;67.01;99939.38;109537;1262;21972;-75
2022/06/21 06:01:01;;;;;;;9.60;7.50;;;;;;;13.85;66.71;99939.50;110328;1256;21984;-76
2022/06/21 06:03:53;;;;;;;8.10;6.40;;;;;;;13.93;66.71;99936.05;110270;1256;23033;-76
2022/06/21 06:06:26;;;;;;;6.40;5.10;;;;;;;14.08;67.15;99937.04;110184;1256;23679;-75
2022/06/21 06:09:02;;;;;;;3.90;3.50;;;;;;;14.19;66.43;99938.62;110176;1256;22021;-76
2022/06/21 06:11:58;;;;;;;3.40;2.10;;;;;;;14.25;65.79;99938.34;110130;1256;23574;-76
2022/06/21 06:14:51;;;;;;;6.50;5.50;;;;;;;14.26;65.06;99936.79;110162;1256;21961;-78
2022/06/21 06:17:58;;;;;;;8.40;6.70;;;;;;;14.30;65.04;99929.06;110509;1252;22836;-77
2022/06/21 06:20:42;;;;;;;7.00;6.20;;;;;;;14.40;65.44;99933.37;110454;1254;24310;-77
2022/06/21 06:23:18;;;;;;;16.70;8.40;;;;;;;14.50;65.19;99941.98;110520;1252;23025;-77
2022/06/21 06:25:57;;;;;;;13.80;10.10;;;;;;;14.52;64.43;99944.70;110401;1254;22195;-76
2022/06/21 06:29:15;;;;;;;10.50;7.50;;;;;;;14.49;64.13;99952.20;110477;1254;21970;-76
2022/06/21 06:32:18;;;;;;;6.10;3.30;;;;;;;14.45;64.04;99944.37;110556;1252;21960;-77
2022/06/21 06:34:52;;;;;;;3.90;2.80;;;;;;;14.48;64.09;99947.36;110087;1258;22208;-77
2022/06/21 06:37:25;;;;;;;4.20;2.50;;;;;;;14.50;63.84;99943.29;110106;1258;23232;-76
2022/06/21 06:39:54;;;;;;;6.50;4.00;;;;;;;14.50;63.60;99945.33;110159;1258;22005;-76
2022/06/21 06:42:29;;;;;;;8.10;4.30;;;;;;;14.50;63.39;99944.45;110096;1258;22846;-76
2022/06/21 06:45:06;;;;;;;7.30;3.20;;;;;;;14.47;63.18;99949.70;109968;1258;21976;-78
2022/06/21 06:47:38;;;;;;;12.40;8.10;;;;;;;14.41;63.28;99947.97;110085;1258;23583;-78
2022/06/21 06:50:36;;;;;;;13.30;9.60;;;;;;;14.38;63.49;99947.35;110182;1258;22239;-78
2022/06/21 06:53:16;;;;;;;10.80;9.10;;;;;;;14.36;63.81;99951.68;110149;1258;24313;-78
2022/06/21 06:55:51;;;;;;;16.90;13.00;;;;;;;14.36;63.86;99952.95;110153;1258;23708;-78
2022/06/21 06:58:46;;;;;;;12.20;5.70;;;;;;;14.35;63.83;99959.08;110050;1258;22283;-78
2022/06/21 07:01:21;;;;;;;7.20;2.70;;;;;;;14.30;63.71;99962.71;109891;1258;23126;-79
2022/06/21 07:04:02;;;;;;;6.50;2.70;;;;;;;14.23;63.83;99966.05;110089;1258;21965;-78
2022/06/21 07:06:44;;;;;;;8.70;5.00;;;;;;;14.17;64.08;99965.42;109853;1258;23065;-78
2022/06/21 07:09:36;;;;;;;;;;;;;;;14.14;64.33;99968.72;109750;1258;21958;-78
2022/06/21 07:12:35;;;;;;;8.40;6.70;;;;;;;14.01;64.86;99979.42;110420;1252;21965;-77
2022/06/21 07:15:12;;;;;;;8.00;5.30;;;;;;;13.95;65.23;99977.94;109749;1260;21974;-77
2022/06/21 07:17:56;;;;;;;5.20;3.70;;;;;;;13.95;65.58;99978.44;110108;1259;22763;-78
2022/06/21 07:20:47;;;;;;;5.50;2.70;;;;;;;13.99;65.55;99980.44;109230;1263;21964;-78
2022/06/21 07:23:30;;;;;;;4.60;2.40;;;;;;;14.02;65.73;99981.27;109233;1264;22002;-80
2022/06/21 07:26:46;;;;;;;6.20;3.20;;;;;;;14.07;65.76;99985.42;108925;1264;21986;-79
2022/06/21 07:29:56;;;;;;;4.50;2.60;;;;;;;14.09;65.62;99987.91;109413;1263;24281;-80
2022/06/21 07:32:39;;;;;;;7.50;3.20;;;;;;;14.09;65.58;99985.98;109246;1264;22876;-81
2022/06/21 07:35:44;;;;;;;5.70;3.00;;;;;;;14.15;66.05;99991.94;109132;1264;21975;-79
2022/06/21 07:38:31;;;;;;;4.70;2.60;;;;;;;14.30;66.47;99997.83;109474;1264;22046;-81
2022/06/21 07:41:17;;;;;;;3.50;2.40;;;;;;;14.41;66.25;100003.23;108967;1267;23001;-78
2022/06/21 07:44:24;;;;;;;2.80;2.20;;;;;;;14.50;65.96;100006.72;108945;1267;23614;-78
2022/06/21 07:47:16;;;;;;;3.20;2.00;;;;;;;14.53;65.56;100006.66;108917;1267;22067;-79
2022/06/21 07:49:55;;;;;;;5.10;2.60;;;;;;;14.57;65.47;100008.74;108942;1268;22392;-75
2022/06/21 07:52:33;;;;;;;6.10;3.40;;;;;;;14.65;65.26;100018.28;109774;1258;22003;-79
2022/06/21 07:55:31;;;;;;;6.90;2.20;;;;;;;14.69;64.75;100016.30;110218;1257;23032;-78
2022/06/21 07:58:44;;;;;;;3.70;2.00;;;;;;;14.72;64.37;100018.50;110244;1257;22769;-78
2022/06/21 08:07:31;;;;;;;4.40;1.70;;;;;;;15.02;64.01;100024.37;110508;1251;23581;-75
2022/06/21 08:11:09;;;;;;;9.70;1.80;;;;;;;15.17;63.60;100026.20;109868;1257;21992;-77
2022/06/21 08:13:48;;;;;;;2.90;1.70;;;;;;;15.22;62.48;100021.54;109415;1264;22088;-79
2022/06/21 08:17:15;;;;;;;5.10;3.80;;;;;;;15.34;62.46;100015.34;109137;1263;21972;-77
2022/06/21 08:20:23;;;;;;;9.20;7.50;;;;;;;15.55;62.06;100019.33;108889;1270;23067;-82
2022/06/21 08:24:27;;;;;;;5.30;2.40;;;;;;;15.70;61.54;100028.98;108900;1270;22001;-78
2022/06/21 08:27:47;;;;;;;;;;;;;;;;;;;;;
2022/06/21 08:31:16;;;;;;;11.20;8.40;;;;;;;16.23;62.22;100026.85;108386;1275;23817;-78
2022/06/21 08:34:38;;;;;;;10.30;7.70;;;;;;;16.49;60.86;100031.39;108378;1271;21997;-78
2022/06/21 08:37:42;;;;;;;6.90;4.70;;;;;;;16.52;59.22;100033.14;108409;1273;21997;-78
2022/06/21 08:41:51;;;;;;;3.50;2.80;;;;;;;16.41;58.67;100031.27;108401;1273;22789;-79
2022/06/21 08:48:29;;;;;;;10.10;1.90;;;;;;;16.36;59.11;100046.47;108482;1273;23728;-78
2022/06/21 08:52:17;;;;;;;;;;;;;;;;;;;;;
2022/06/21 08:55:40;;;;;;;5.40;2.50;;;;;;;16.42;58.96;100045.14;109451;1264;22132;-82
2022/06/21 08:59:14;;;;;;;4.90;2.40;;;;;;;16.67;59.68;100041.70;108915;1270;23613;-81
2022/06/21 09:03:02;;;;;;;5.10;1.80;;;;;;;16.97;59.00;100044.02;108999;1269;21975;-83
2022/06/21 09:06:58;;;;;;;;;;;;;;;;;;;;;
2022/06/21 09:10:40;;;;;;;7.20;1.50;;;;;;;17.39;55.78;100063.63;109152;1263;22768;-79
2022/06/21 09:14:15;;;;;;;1.70;1.10;;;;;;;17.05;54.54;100064.60;109419;1264;23556;-78
2022/06/21 09:17:52;;;;;;;7.80;1.60;;;;;;;16.78;54.84;100065.97;109217;1265;23000;-79
2022/06/21 09:21:25;;;;;;;5.90;5.30;;;;;;;16.76;56.00;100068.43;109044;1267;21977;-77
2022/06/21 09:25:14;;;;;;;8.50;5.30;;;;;;;16.91;55.96;100066.77;109330;1268;21984;-77
2022/06/21 09:28:26;;;;;;;4.60;2.80;;;;;;;17.03;56.08;100066.27;108852;1267;23678;-79
2022/06/21 09:31:36;;;;;;;5.30;2.60;;;;;;;17.23;56.34;100063.52;108757;1268;21960;-78
2022/06/21 09:34:45;;;;;;;7.30;6.60;;;;;;;17.39;55.68;100069.06;108912;1264;23618;-79
2022/06/21 09:37:40;;;;;;;5.80;4.80;;;;;;;17.30;54.80;100066.38;109513;1264;23603;-78
2022/06/21 09:41:02;;;;;;;5.60;4.50;;;;;;;17.31;55.94;100059.69;110251;1257;21971;-78
2022/06/21 09:43:54;;;;;;;7.60;5.50;;;;;;;17.71;56.65;100065.34;109944;1260;23042;-78
2022/06/21 09:47:00;;;;;;;3.20;1.60;;;;;;;18.12;55.38;100064.33;110118;1258;23728;-78
2022/06/21 09:50:00;;;;;;;3.60;2.00;;;;;;;18.39;54.07;100052.48;109456;1263;22944;-78
2022/06/21 09:53:38;;;;;;;9.70;6.70;;;;;;;18.40;53.21;100051.35;109507;1263;21981;-78
2022/06/21 09:56:58;;;;;;;;;;;;;;;;;;;;;
2022/06/21 10:00:37;;;;;;;3.40;1.60;;;;;;;18.63;52.96;100049.66;110069;1258;21994;-78
2022/06/21 10:04:29;;;;;;;3.50;1.60;;;;;;;18.98;52.95;100040.59;109418;1263;22749;-78
2022/06/21 10:08:10;;;;;;;3.00;1.20;;;;;;;19.17;51.32;100034.16;109722;1262;22036;-78
2022/06/21 10:11:52;;;;;;;5.60;1.40;;;;;;;19.26;50.31;100034.63;109071;1273;23834;-78
2022/06/21 10:15:47;;;;;;;;;;;;;;;;;;;;;
2022/06/21 10:19:10;;;;;;;3.40;1.30;;;;;;;19.00;51.92;100027.80;108888;1268;21991;-78
2022/06/21 10:23:26;;;;;;;1.60;0.70;;;;;;;19.14;51.15;100033.67;109020;1268;21979;-78
2022/06/21 10:30:48;;;;;;;12.10;1.60;;;;;;;19.47;49.63;100045.63;108960;1272;23474;-78
2022/06/21 10:34:14;;;;;;;2.90;0.90;;;;;;;19.47;48.41;100051.94;108505;1275;22748;-78
2022/06/21 10:38:14;;;;;;;;;;;;;;;;;;;;;
2022/06/21 10:41:20;;;;;;;1.70;1.00;;;;;;;19.00;47.91;100063.60;108697;1281;22808;-77
2022/06/21 10:44:40;;;;;;;5.00;0.90;;;;;;;18.93;48.77;100065.44;108428;1283;22024;-78
2022/06/21 10:48:44;;;;;;;6.30;1.50;;;;;;;19.16;48.74;100066.65;107262;1291;544304;-78
2022/06/21 10:51:55;;;;;;;2.50;1.10;;;;;;;19.15;47.88;100070.69;109539;1266;21977;-77
2022/06/21 10:55:20;;;;;;;2.30;0.90;;;;;;;19.10;48.33;100065.83;109217;1266;23602;-78
2022/06/21 10:59:06;;;;;;;4.30;1.20;;;;;;;19.12;48.04;100068.89;110259;1257;22143;-77
2022/06/21 11:02:54;;;;;;;4.10;1.30;;;;;;;19.08;48.13;100066.77;110138;1257;379469;-81
2022/06/21 11:06:19;;;;;;;4.10;1.10;;;;;;;19.08;48.40;100060.50;109758;1265;22041;-82
2022/06/21 11:10:33;;;;;;;4.50;1.00;;;;;;;19.12;48.33;100055.79;109503;1264;22090;-80
2022/06/21 11:13:20;;;;;;;4.80;1.10;;;;;;;19.19;47.79;100050.20;108479;1273;22089;-77
2022/06/21 11:17:02;;;;;;;13.00;2.00;;;;;;;19.21;47.91;100049.34;108340;1277;22009;-77
2022/06/21 11:20:49;;;;;;;5.90;1.40;;;;;;;19.22;47.61;100053.86;108173;1282;21995;-78
2022/06/21 11:24:08;;;;;;;1.80;0.60;;;;;;;19.10;47.46;100047.70;107992;1280;22120;-77
2022/06/21 11:27:36;;;;;;;2.10;0.90;;;;;;;19.07;47.18;100048.10;108260;1279;23778;-77
2022/06/21 11:31:02;;;;;;;2.10;0.90;;;;;;;19.04;47.01;100051.09;107948;1280;22011;-78
2022/06/21 11:34:51;;;;;;;4.50;1.30;;;;;;;19.00;47.13;100057.30;108025;1279;22007;-76
2022/06/21 11:38:19;;;;;;;2.10;1.00;;;;;;;19.04;47.88;100058.75;108239;1279;22008;-77
2022/06/21 11:45:48;;;;;;;1.90;0.70;;;;;;;19.27;46.89;100065.09;108409;1276;22005;-77
2022/06/21 11:49:06;;;;;;;3.50;0.80;;;;;;;19.29;46.65;100063.48;108240;1280;22007;-78
2022/06/21 11:52:17;;;;;;;1.60;0.90;;;;;;;19.32;46.79;100062.79;108724;1273;23728;-77
2022/06/21 11:55:45;;;;;;;0.80;0.50;;;;;;;19.36;46.85;100059.46;108672;1273;23072;-76
2022/06/21 11:58:40;;;;;;;3.00;0.80;;;;;;;19.45;46.75;100062.77;109635;1257;22685;-83
2022/06/21 12:01:46;;;;;;;5.30;0.80;;;;;;;19.48;46.07;100057.65;109987;1260;23601;-82
2022/06/21 12:05:20;;;;;;;4.50;1.00;;;;;;;19.55;46.19;100054.77;110184;1257;24315;-77
2022/06/21 12:12:02;;;;;;;3.80;0.80;;;;;;;19.73;46.10;100069.59;110066;1259;22287;-78
2022/06/21 12:16:08;;;;;;;3.50;0.80;;;;;;;19.60;46.28;100064.55;109342;1264;22012;-77
2022/06/21 12:19:22;;;;;;;2.70;1.00;;;;;;;19.53;46.65;100064.02;109045;1270;23757;-77
2022/06/21 12:22:28;;;;;;;3.40;1.00;;;;;;;19.55;46.77;100066.97;108824;1270;22100;-77
2022/06/21 12:25:20;;;;;;;4.90;1.10;;;;;;;19.49;46.26;100068.38;108533;1270;24474;-77
2022/06/21 12:27:58;;;;;;;1.40;0.50;;;;;;;19.45;46.38;100065.23;108470;1274;21990;-78
2022/06/21 12:30:53;;;;;;;7.30;1.40;;;;;;;19.44;46.34;100063.16;108443;1276;24303;-78
2022/06/21 12:33:33;;;;;;;2.80;0.80;;;;;;;19.42;46.14;100063.55;108493;1273;22965;-76
2022/06/21 12:36:09;;;;;;;4.90;1.10;;;;;;;19.46;46.54;100059.58;108675;1270;23686;-77
2022/06/21 12:39:25;;;;;;;2.30;1.00;;;;;;;19.49;46.19;100065.80;109024;1270;22009;-76
2022/06/21 12:43:22;;;;;;;1.70;0.70;;;;;;;19.54;46.43;100068.64;108752;1270;21982;-77
2022/06/21 12:46:30;;;;;;;2.10;1.00;;;;;;;19.52;45.77;100068.88;108659;1273;21985;-79
2022/06/21 12:49:44;;;;;;;2.60;0.70;;;;;;;19.37;45.51;100065.15;108404;1276;24315;-79
2022/06/21 12:52:40;;;;;;;;;;;;;;;19.21;45.86;100070.88;108706;1270;23866;-85
2022/06/21 12:56:52;;;;;;;4.40;0.90;;;;;;;19.01;46.55;100074.79;108855;1272;22035;-84
2022/06/21 13:00:33;;;;;;;3.10;0.90;;;;;;;18.97;47.53;100078.31;109196;1270;22449;-86
2022/06/21 13:04:29;;;;;;;1.90;1.00;;;;;;;19.00;47.95;100068.39;108885;1276;22024;-84
2022/06/21 13:07:35;;;;;;;3.50;1.20;;;;;;;19.05;48.13;100061.12;108831;1276;21994;-78
2022/06/21 13:10:33;;;;;;;2.70;1.20;;;;;;;19.07;47.96;100063.63;108413;1282;23006;-82
2022/06/21 13:13:37;;;;;;;3.10;1.20;;;;;;;19.02;48.00;100067.36;108318;1282;22143;-81
2022/06/21 13:16:38;;;;;;;4.80;1.30;;;;;;;18.96;48.16;100068.77;108231;1279;22778;-76
2022/06/21 13:20:22;;;;;;;5.20;1.80;;;;;;;19.02;48.59;100066.77;108449;1274;22070;-75
2022/06/21 13:23:28;;;;;;;5.20;1.50;;;;;;;19.20;48.39;100061.75;108675;1273;22971;-77
2022/06/21 13:26:21;;;;;;;5.70;1.70;;;;;;;19.36;47.66;100060.09;108727;1273;22983;-75
2022/06/21 13:29:56;;;;;;;4.20;1.30;;;;;;;19.50;47.59;100060.75;108862;1273;23809;-77
2022/06/21 13:32:52;;;;;;;2.60;1.00;;;;;;;19.63;47.40;100051.46;108450;1276;21999;-77
2022/06/21 13:35:56;;;;;;;3.70;1.20;;;;;;;19.64;47.08;100043.08;108601;1270;23699;-75
2022/06/21 13:38:49;;;;;;;4.90;1.10;;;;;;;19.66;47.34;100036.95;108860;1273;22035;-80
2022/06/21 13:44:37;;;;;;;2.80;1.30;;;;;;;19.68;47.03;100030.23;109309;1263;22282;-74
2022/06/21 13:47:46;;;;;;;5.20;1.50;;;;;;;19.67;47.03;100028.55;109364;1264;23715;-75
2022/06/21 13:51:21;;;;;;;2.90;1.10;;;;;;;19.71;47.30;100028.64;109236;1264;23058;-78
2022/06/21 13:54:44;;;;;;;6.70;1.80;;;;;;;19.85;47.37;100028.72;109216;1266;23535;-81
2022/06/21 13:57:29;;;;;;;3.30;1.40;;;;;;;19.96;47.09;100030.18;109779;1260;22386;-78
2022/06/21 13:59:59;;;;;;;3.20;1.30;;;;;;;20.07;46.79;100037.27;109734;1263;23363;-77
2022/06/21 14:02:46;;;;;;;1.90;1.50;;;;;;;20.16;46.50;100036.48;109729;1260;22437;-78
2022/06/21 14:05:44;;;;;;;4.20;1.50;;;;;;;20.20;46.51;100035.54;109427;1261;21987;-77
2022/06/21 14:08:31;;;;;;;6.20;2.00;;;;;;;20.20;46.26;100033.02;110020;1254;21941;-76
2022/06/21 14:11:26;;;;;;;4.60;1.70;;;;;;;20.20;45.95;100032.53;110626;1254;24317;-77
2022/06/21 14:14:25;;;;;;;3.40;1.30;;;;;;;20.14;46.11;100037.45;110631;1254;22333;-81
2022/06/21 14:17:28;;;;;;;2.60;1.40;;;;;;;20.06;45.99;100038.42;111017;1253;22765;-80
2022/06/21 14:20:45;;;;;;;2.00;1.30;;;;;;;20.05;46.11;100038.63;110895;1254;21954;-81
2022/06/21 14:23:32;;;;;;;2.70;1.30;;;;;;;20.05;45.93;100035.41;110092;1260;21939;-82
2022/06/21 14:26:31;;;;;;;2.40;1.30;;;;;;;20.01;45.72;100040.32;110284;1260;23584;-80
2022/06/21 14:29:49;;;;;;;3.20;1.80;;;;;;;19.92;45.81;100043.39;110593;1259;23634;-83
2022/06/21 14:33:09;;;;;;;4.30;1.80;;;;;;;19.87;45.91;100039.38;109682;1266;22010;-85
2022/06/21 14:35:54;;;;;;;5.50;1.60;;;;;;;19.89;46.03;100034.85;109156;1270;22103;-84